Time;durP1;ratioP1;P1;durP2;ratioP2;P2;SDS_P1;SDS_P2;PMS_P1;PMS_P2;Temp;Humidity;BMP_temperature;BMP_pressure;BME280_temperature;BME280_humidity;BME280_pressure;Samples;Min_cycle;Max_cycle;Signal;HPM_P1;HPM_P2
2023/06/22 00:00:51;;;;;;;7.80;5.60;;;16.70;1.00;;;;;;5016593;28;20194;-54
2023/06/22 00:03:19;;;;;;;8.63;5.90;;;16.70;28.10;;;;;;5015947;28;20914;-55
2023/06/22 00:05:45;;;;;;;36.83;24.57;;;16.70;26.60;;;;;;5016260;28;20444;-55
2023/06/22 00:08:11;;;;;;;40.00;26.50;;;16.60;99.90;;;;;;5015816;28;20926;-55
2023/06/22 00:10:36;;;;;;;40.87;25.60;;;16.60;99.90;;;;;;5015942;28;20473;-55
2023/06/22 00:13:02;;;;;;;60.97;36.53;;;16.50;99.90;;;;;;5016214;28;20230;-54
2023/06/22 00:15:28;;;;;;;47.73;30.93;;;16.50;99.90;;;;;;5016300;28;20179;-53
2023/06/22 00:17:54;;;;;;;39.83;25.50;;;16.50;99.90;;;;;;5015945;28;20640;-55
2023/06/22 00:20:19;;;;;;;34.80;20.23;;;16.50;99.90;;;;;;5015872;28;20517;-55
2023/06/22 00:22:45;;;;;;;21.77;14.80;;;16.50;99.90;;;;;;5015909;28;20182;-55
2023/06/22 00:25:12;;;;;;;18.53;13.70;;;16.50;99.90;;;;;;5015517;28;20628;-54
2023/06/22 00:27:37;;;;;;;20.70;13.70;;;16.50;1.00;;;;;;5015755;28;20183;-55
2023/06/22 00:30:03;;;;;;;27.13;18.20;;;16.40;1.00;;;;;;5015379;28;20870;-56
2023/06/22 00:32:29;;;;;;;27.30;14.77;;;16.40;1.00;;;;;;5015658;28;20195;-56
2023/06/22 00:34:55;;;;;;;14.83;12.43;;;16.40;99.90;;;;;;5015395;28;20418;-55
2023/06/22 00:37:25;;;;;;;13.23;11.30;;;16.40;99.90;;;;;;5015589;28;20228;-55
2023/06/22 00:39:51;;;;;;;11.73;9.17;;;16.40;99.90;;;;;;5015694;28;20167;-55
2023/06/22 00:42:17;;;;;;;10.67;8.00;;;16.40;99.90;;;;;;5015663;28;20428;-55
2023/06/22 00:44:44;;;;;;;9.60;7.60;;;16.50;99.90;;;;;;5015401;28;20414;-54
2023/06/22 00:47:12;;;;;;;9.90;8.03;;;16.50;99.90;;;;;;5015423;28;20189;-53
2023/06/22 00:49:38;;;;;;;11.20;9.30;;;16.50;1.00;;;;;;5015578;28;20469;-55
2023/06/22 00:52:08;;;;;;;10.00;7.87;;;16.50;99.90;;;;;;5014808;28;20806;-55
2023/06/22 00:54:38;;;;;;;8.43;7.50;;;16.60;1.00;;;;;;5015338;28;20823;-55
2023/06/22 00:57:04;;;;;;;13.20;9.90;;;16.50;1.00;;;;;;5015349;28;20418;-54
2023/06/22 00:59:32;;;;;;;12.27;9.10;;;16.50;99.90;;;;;;5015266;28;20438;-55
2023/06/22 01:01:58;;;;;;;10.80;7.93;;;16.60;99.90;;;;;;5015217;28;20413;-54
2023/06/22 01:04:33;;;;;;;12.50;10.50;;;16.60;99.90;;;;;;5015349;28;20483;-55
2023/06/22 01:07:06;;;;;;;20.47;11.30;;;16.70;99.90;;;;;;5014745;28;20178;-56
2023/06/22 01:09:39;;;;;;;10.70;8.63;;;16.60;99.90;;;;;;5015049;28;20492;-54
2023/06/22 01:12:08;;;;;;;9.63;7.87;;;16.70;1.00;;;;;;5014473;28;20405;-55
2023/06/22 01:15:22;;;;;;;8.83;6.87;;;16.60;1.00;;;;;;5015252;28;20442;-54
2023/06/22 01:17:49;;;;;;;8.03;6.53;;;16.60;1.00;;;;;;5012654;28;20497;-54
2023/06/22 01:20:16;;;;;;;7.70;6.90;;;16.60;73.60;;;;;;5014745;28;20425;-55
2023/06/22 01:23:12;;;;;;;8.80;6.67;;;16.60;99.90;;;;;;5014795;28;20428;-54
2023/06/22 01:25:57;;;;;;;10.77;7.67;;;16.60;83.50;;;;;;5014748;28;20460;-54
2023/06/22 01:28:54;;;;;;;13.70;9.03;;;16.60;1.00;;;;;;5014624;28;20449;-54
2023/06/22 01:31:24;;;;;;;10.20;7.33;;;16.50;99.90;;;;;;5014643;28;20552;-54
2023/06/22 01:33:53;;;;;;;13.23;8.23;;;16.50;99.90;;;;;;5014724;28;20834;-55
2023/06/22 01:36:20;;;;;;;12.23;6.83;;;16.60;99.90;;;;;;5014799;28;20418;-55
2023/06/22 01:38:47;;;;;;;11.37;7.20;;;16.60;99.90;;;;;;5014866;28;20547;-55
2023/06/22 01:41:13;;;;;;;9.93;7.13;;;16.60;1.00;;;;;;5014683;28;20465;-55
2023/06/22 01:43:39;;;;;;;26.97;19.27;;;16.50;1.00;;;;;;5014454;28;20422;-55
2023/06/22 01:46:05;;;;;;;97.03;56.43;;;16.50;62.80;;;;;;5014399;28;20190;-54
2023/06/22 01:48:32;;;;;;;44.33;29.93;;;16.50;99.90;;;;;;5014364;28;20799;-55
2023/06/22 01:50:57;;;;;;;28.33;19.73;;;16.40;99.90;;;;;;5014186;28;20214;-55
2023/06/22 01:53:24;;;;;;;31.90;19.43;;;16.40;1.00;;;;;;5014051;28;20955;-55
2023/06/22 01:55:50;;;;;;;18.30;12.10;;;16.40;99.90;;;;;;5013601;28;20413;-54
2023/06/22 01:58:16;;;;;;;15.77;12.10;;;16.40;1.00;;;;;;5014478;28;20429;-55
2023/06/22 02:01:13;;;;;;;14.77;9.93;;;16.40;1.00;;;;;;5014256;28;20256;-55
2023/06/22 02:03:43;;;;;;;15.97;10.30;;;16.40;58.70;;;;;;5012932;28;20433;-54
2023/06/22 02:06:19;;;;;;;15.13;9.90;;;16.40;99.90;;;;;;5013940;28;20410;-54
2023/06/22 02:08:53;;;;;;;10.77;8.60;;;16.30;99.90;;;;;;5014159;28;20471;-55
2023/06/22 02:11:21;;;;;;;12.23;10.03;;;16.30;99.90;;;;;;5014249;28;20450;-54
2023/06/22 02:13:47;;;;;;;12.20;9.13;;;16.20;99.90;;;;;;5014185;28;20421;-55
2023/06/22 02:16:14;;;;;;;13.67;9.10;;;16.20;79.40;;;;;;5014429;28;20421;-55
2023/06/22 02:18:46;;;;;;;13.90;9.80;;;16.20;95.50;;;;;;5014151;28;20421;-55
2023/06/22 02:21:12;;;;;;;11.20;9.20;;;16.10;99.90;;;;;;5013828;28;20542;-55
2023/06/22 02:23:37;;;;;;;11.40;9.10;;;16.10;99.40;;;;;;5014327;28;20422;-55
2023/06/22 02:26:03;;;;;;;9.23;7.90;;;16.10;99.90;;;;;;5013711;28;20189;-55
2023/06/22 02:28:29;;;;;;;18.80;9.57;;;16.10;1.00;;;;;;5014290;28;20187;-57
2023/06/22 02:30:55;;;;;;;10.27;8.73;;;16.10;99.90;;;;;;5013850;28;20813;-56
2023/06/22 02:33:21;;;;;;;10.63;8.07;;;16.00;68.50;;;;;;5013727;28;20183;-55
2023/06/22 02:35:48;;;;;;;12.07;7.73;;;16.00;99.90;;;;;;5013946;28;20667;-55
2023/06/22 02:38:14;;;;;;;12.30;9.10;;;16.00;99.90;;;;;;5013825;28;20509;-56
2023/06/22 02:40:40;;;;;;;10.87;8.37;;;16.00;99.90;;;;;;5014252;28;20416;-56
2023/06/22 02:43:06;;;;;;;11.53;8.83;;;15.90;99.90;;;;;;5013730;28;20426;-55
2023/06/22 02:45:31;;;;;;;10.93;9.43;;;15.90;99.90;;;;;;5014178;28;20183;-55
2023/06/22 02:47:57;;;;;;;13.27;9.93;;;15.80;66.70;;;;;;5013749;28;20626;-56
2023/06/22 02:50:23;;;;;;;15.03;10.00;;;15.80;1.00;;;;;;5013684;28;20264;-55
2023/06/22 02:52:49;;;;;;;13.30;10.13;;;15.80;1.00;;;;;;5013856;28;20478;-54
2023/06/22 02:55:15;;;;;;;10.63;8.80;;;15.80;1.00;;;;;;5013974;28;20928;-56
2023/06/22 02:57:43;;;;;;;14.70;11.50;;;15.80;99.90;;;;;;5014084;28;20186;-54
2023/06/22 03:00:17;;;;;;;16.03;9.57;;;15.70;99.90;;;;;;5013690;28;20230;-56
2023/06/22 03:02:47;;;;;;;10.63;8.90;;;15.70;1.00;;;;;;5013749;28;20557;-55
2023/06/22 03:05:14;;;;;;;13.03;10.57;;;15.70;99.90;;;;;;5013884;28;20430;-56
2023/06/22 03:07:41;;;;;;;13.80;9.87;;;15.70;1.00;;;;;;5015915;28;20429;-56
2023/06/22 03:10:09;;;;;;;13.90;11.43;;;15.70;1.00;;;;;;5017143;28;20551;-56
2023/06/22 03:12:34;;;;;;;11.87;8.47;;;15.70;99.90;;;;;;5017173;28;20421;-53
2023/06/22 03:15:00;;;;;;;16.13;10.90;;;15.60;1.00;;;;;;5016995;28;20418;-55
2023/06/22 03:17:26;;;;;;;14.27;11.93;;;15.60;1.00;;;;;;5017372;28;20182;-55
2023/06/22 03:19:51;;;;;;;15.20;12.17;;;15.60;92.10;;;;;;5016996;28;20651;-55
2023/06/22 03:22:17;;;;;;;13.80;10.90;;;15.60;3.10;;;;;;5016648;28;20180;-55
2023/06/22 03:24:42;;;;;;;15.23;11.93;;;15.60;99.90;;;;;;5016961;28;20178;-55
2023/06/22 03:27:08;;;;;;;18.00;12.43;;;15.60;99.90;;;;;;5017101;28;20519;-56
2023/06/22 03:29:34;;;;;;;16.33;11.63;;;15.60;99.90;;;;;;5016468;28;20213;-55
2023/06/22 03:31:59;;;;;;;18.67;11.30;;;15.60;1.00;;;;;;5016560;28;20213;-54
2023/06/22 03:34:25;;;;;;;14.50;10.70;;;15.60;1.00;;;;;;5017062;28;20185;-55
2023/06/22 03:36:50;;;;;;;18.23;12.97;;;15.70;99.90;;;;;;5016809;28;20236;-55
2023/06/22 03:39:16;;;;;;;15.47;11.33;;;15.70;99.90;;;;;;5016938;28;20186;-55
2023/06/22 03:41:41;;;;;;;13.10;10.33;;;15.70;99.90;;;;;;5016673;28;20183;-56
2023/06/22 03:44:10;;;;;;;18.93;12.23;;;15.80;99.90;;;;;;5016594;28;20689;-55
2023/06/22 03:46:36;;;;;;;15.87;11.10;;;15.80;99.90;;;;;;5016506;28;20222;-55
2023/06/22 03:49:03;;;;;;;16.43;13.03;;;15.90;99.90;;;;;;5016551;28;20457;-56
2023/06/22 03:51:28;;;;;;;15.90;11.63;;;16.00;99.90;;;;;;5016703;28;20289;-55
2023/06/22 03:53:54;;;;;;;13.43;9.37;;;16.00;61.60;;;;;;5016423;28;20965;-55
2023/06/22 03:56:20;;;;;;;17.50;11.60;;;16.10;1.00;;;;;;5016651;28;20278;-54
2023/06/22 03:58:46;;;;;;;15.07;10.70;;;16.30;1.00;;;;;;5016714;28;20191;-55
2023/06/22 04:01:12;;;;;;;15.50;12.33;;;16.30;99.90;;;;;;5016490;28;20430;-56
2023/06/22 04:03:38;;;;;;;13.93;11.67;;;16.40;1.00;;;;;;5016260;28;20190;-56
2023/06/22 04:06:03;;;;;;;19.20;11.67;;;16.50;1.00;;;;;;5016173;28;20194;-54
2023/06/22 04:08:29;;;;;;;10.90;9.70;;;16.50;99.90;;;;;;5016171;28;20565;-55
2023/06/22 04:10:55;;;;;;;15.87;11.70;;;16.60;1.00;;;;;;5016135;28;20210;-54
2023/06/22 04:13:21;;;;;;;12.20;9.60;;;16.70;99.90;;;;;;5016033;28;20969;-56
2023/06/22 04:15:46;;;;;;;18.50;11.10;;;16.80;1.00;;;;;;5016023;28;20191;-55
2023/06/22 04:18:13;;;;;;;15.43;12.00;;;16.80;99.90;;;;;;5015703;28;20320;-55
2023/06/22 04:20:39;;;;;;;13.80;10.93;;;16.90;42.40;;;;;;5016201;28;20627;-54
2023/06/22 04:23:04;;;;;;;16.90;10.43;;;16.90;1.00;;;;;;5015616;28;20420;-55
2023/06/22 04:25:30;;;;;;;15.20;10.17;;;17.00;99.90;;;;;;5015780;28;20186;-55
2023/06/22 04:27:55;;;;;;;14.90;10.60;;;17.00;99.90;;;;;;5015797;28;20777;-55
2023/06/22 04:30:21;;;;;;;14.67;11.33;;;17.00;99.90;;;;;;5015649;28;20579;-55
2023/06/22 04:32:56;;;;;;;14.73;11.23;;;17.10;1.00;;;;;;5015732;28;20190;-55
2023/06/22 04:35:22;;;;;;;15.27;10.70;;;17.20;1.00;;;;;;5015650;28;20421;-54
2023/06/22 04:37:49;;;;;;;14.20;10.00;;;17.30;99.90;;;;;;5015653;28;20426;-55
2023/06/22 04:40:15;;;;;;;18.30;12.80;;;17.30;65.80;;;;;;5015555;28;20429;-55
2023/06/22 04:42:42;;;;;;;13.73;11.33;;;17.40;99.90;;;;;;5015197;28;20413;-57
2023/06/22 04:45:10;;;;;;;16.03;12.10;;;17.50;17.10;;;;;;5015372;28;20593;-55
2023/06/22 04:47:39;;;;;;;15.20;11.13;;;17.50;1.00;;;;;;5015369;28;20426;-55
2023/06/22 04:50:05;;;;;;;15.03;10.60;;;17.60;1.00;;;;;;5015347;28;20505;-55
2023/06/22 04:52:31;;;;;;;15.30;10.17;;;17.70;1.00;;;;;;5015034;28;20470;-55
2023/06/22 04:54:57;;;;;;;11.63;8.70;;;17.80;1.00;;;;;;5015460;28;20881;-55
2023/06/22 04:57:30;;;;;;;10.93;9.63;;;18.00;1.00;;;;;;5015243;28;20236;-55
2023/06/22 04:59:56;;;;;;;12.80;9.77;;;18.10;99.90;;;;;;5015233;28;20965;-55
2023/06/22 05:02:23;;;;;;;15.10;10.00;;;18.20;99.90;;;;;;5014853;28;20445;-55
2023/06/22 05:04:51;;;;;;;10.90;8.63;;;18.40;99.90;;;;;;5014876;28;20228;-54
2023/06/22 05:07:16;;;;;;;9.87;7.97;;;18.50;1.00;;;;;;5015235;28;20464;-54
2023/06/22 05:09:42;;;;;;;11.23;8.30;;;18.60;1.00;;;;;;5015315;28;20465;-54
2023/06/22 05:12:07;;;;;;;15.23;7.93;;;18.80;99.90;;;;;;5015166;28;20192;-55
2023/06/22 05:14:33;;;;;;;10.77;8.53;;;18.90;63.50;;;;;;5014930;28;20182;-54
2023/06/22 05:17:03;;;;;;;10.30;7.20;;;19.00;1.00;;;;;;5014991;28;20179;-55
2023/06/22 05:19:33;;;;;;;7.80;6.80;;;19.10;1.00;;;;;;5014817;28;20596;-54
2023/06/22 05:21:58;;;;;;;10.00;7.13;;;19.20;99.90;;;;;;5014636;28;20813;-55
2023/06/22 05:24:24;;;;;;;10.67;6.40;;;19.30;99.90;;;;;;5014775;28;20433;-55
2023/06/22 05:26:49;;;;;;;7.37;5.83;;;19.50;99.90;;;;;;5014795;28;20182;-54
2023/06/22 05:29:15;;;;;;;7.07;6.03;;;19.70;99.90;;;;;;5014066;28;20253;-54
2023/06/22 05:31:41;;;;;;;7.17;5.67;;;19.90;90.70;;;;;;5014783;28;20241;-54
2023/06/22 05:34:07;;;;;;;8.57;5.93;;;20.00;44.40;;;;;;5014794;28;20187;-55
2023/06/22 05:36:32;;;;;;;7.43;5.70;;;20.20;1.00;;;;;;5014864;28;20529;-55
2023/06/22 05:38:58;;;;;;;7.63;5.37;;;20.30;1.00;;;;;;5015013;28;20188;-55
2023/06/22 05:41:24;;;;;;;7.50;5.27;;;20.40;1.00;;;;;;5014420;28;20186;-55
2023/06/22 05:43:49;;;;;;;6.00;5.20;;;20.40;1.00;;;;;;5014389;28;20183;-55
2023/06/22 05:46:15;;;;;;;8.20;5.07;;;20.40;1.00;;;;;;5014358;28;20289;-54
2023/06/22 05:48:40;;;;;;;6.90;4.83;;;20.50;1.00;;;;;;5014571;28;20184;-55
2023/06/22 05:51:06;;;;;;;5.60;4.83;;;20.50;1.00;;;;;;5014161;28;20223;-55
2023/06/22 05:53:31;;;;;;;5.30;4.27;;;20.70;1.00;;;;;;5014051;28;20318;-54
2023/06/22 05:55:57;;;;;;;6.43;4.83;;;20.90;1.00;;;;;;5013824;28;20183;-52
2023/06/22 05:58:23;;;;;;;6.07;4.67;;;21.10;1.00;;;;;;5014136;28;20183;-53
2023/06/22 06:00:48;;;;;;;5.33;4.50;;;21.40;1.00;;;;;;5014146;28;20647;-54
2023/06/22 06:03:16;;;;;;;6.47;4.57;;;21.60;1.00;;;;;;5013951;28;20183;-55
2023/06/22 06:05:44;;;;;;;5.03;4.37;;;21.90;1.00;;;;;;5013769;28;20686;-55
2023/06/22 06:08:11;;;;;;;6.87;4.70;;;22.00;1.00;;;;;;5013909;28;20432;-55
2023/06/22 06:10:36;;;;;;;6.30;4.20;;;22.00;1.00;;;;;;5013750;28;20526;-55
2023/06/22 06:13:04;;;;;;;4.03;3.33;;;22.10;1.00;;;;;;5014272;28;20900;-55
2023/06/22 06:15:30;;;;;;;5.13;3.80;;;22.30;1.00;;;;;;5014077;28;20200;-54
2023/06/22 06:17:56;;;;;;;6.03;3.57;;;22.30;1.00;;;;;;5014005;28;20448;-55
2023/06/22 06:20:25;;;;;;;4.80;3.80;;;22.40;1.00;;;;;;5013925;28;20460;-55
2023/06/22 06:22:50;;;;;;;5.27;3.73;;;22.50;1.00;;;;;;5014025;28;20189;-55
2023/06/22 06:25:18;;;;;;;6.90;3.97;;;22.60;1.00;;;;;;5014217;28;20425;-55
2023/06/22 06:27:44;;;;;;;5.30;3.67;;;22.90;1.00;;;;;;5013874;28;20189;-53
2023/06/22 06:30:11;;;;;;;5.23;3.80;;;23.10;1.00;;;;;;5014015;28;20503;-54
2023/06/22 06:32:37;;;;;;;6.33;3.67;;;23.40;1.00;;;;;;5013771;28;20422;-53
2023/06/22 06:35:04;;;;;;;5.50;4.60;;;23.70;1.00;;;;;;5013948;28;20421;-53
2023/06/22 06:37:30;;;;;;;5.73;4.13;;;23.60;1.00;;;;;;5014031;28;20415;-53
2023/06/22 06:39:56;;;;;;;6.10;4.30;;;23.30;1.00;;;;;;5014308;28;20420;-53
2023/06/22 06:42:23;;;;;;;3.70;3.40;;;22.90;1.00;;;;;;5017274;28;20189;-53
2023/06/22 06:44:48;;;;;;;5.50;3.87;;;22.80;1.00;;;;;;5017688;28;20179;-53
2023/06/22 06:47:14;;;;;;;7.90;4.40;;;22.60;1.00;;;;;;5017842;28;20420;-53
2023/06/22 06:49:39;;;;;;;4.77;4.27;;;22.60;1.00;;;;;;5017587;28;20595;-53
2023/06/22 06:52:05;;;;;;;7.70;4.50;;;22.50;1.00;;;;;;5017221;28;20260;-53
2023/06/22 06:54:31;;;;;;;6.93;5.07;;;22.50;1.00;;;;;;5016210;28;20181;-53
2023/06/22 06:56:56;;;;;;;6.70;4.40;;;22.50;1.00;;;;;;5017568;28;20429;-53
2023/06/22 06:59:22;;;;;;;6.00;4.13;;;22.40;1.00;;;;;;5017647;28;20206;-53
2023/06/22 07:01:48;;;;;;;7.17;4.20;;;22.40;1.00;;;;;;5017376;28;20659;-53
2023/06/22 07:04:14;;;;;;;6.30;3.60;;;22.40;1.00;;;;;;5017399;28;20190;-53
2023/06/22 07:06:39;;;;;;;4.63;4.23;;;22.70;1.00;;;;;;5017252;28;20845;-53
2023/06/22 07:09:05;;;;;;;5.93;3.80;;;22.90;1.00;;;;;;5016931;28;20273;-53
2023/06/22 07:11:30;;;;;;;4.50;3.60;;;23.40;1.00;;;;;;5017123;28;20182;-53
2023/06/22 07:13:56;;;;;;;10.10;4.50;;;23.60;1.00;;;;;;5017047;28;20183;-53
2023/06/22 07:16:22;;;;;;;5.70;3.93;;;23.90;1.00;;;;;;5017039;28;20397;-53
2023/06/22 07:18:48;;;;;;;4.03;3.43;;;24.20;1.00;;;;;;5017070;28;20193;-53
2023/06/22 07:21:13;;;;;;;3.97;3.57;;;24.50;1.00;;;;;;5016946;28;20417;-53
2023/06/22 07:23:39;;;;;;;3.73;3.43;;;25.10;1.00;;;;;;5016698;28;20184;-53
2023/06/22 07:26:06;;;;;;;5.53;4.33;;;25.40;1.00;;;;;;5016559;28;20218;-53
2023/06/22 07:28:36;;;;;;;4.20;3.47;;;25.50;1.00;;;;;;5016683;28;20198;-53
2023/06/22 07:31:03;;;;;;;6.50;4.17;;;25.60;1.00;;;;;;5016478;28;20466;-54
2023/06/22 07:33:29;;;;;;;3.87;3.37;;;25.80;99.90;;;;;;5016772;28;20443;-53
2023/06/22 07:35:55;;;;;;;5.53;3.40;;;25.60;99.90;;;;;;5016762;28;20415;-53
2023/06/22 07:38:20;;;;;;;6.20;3.77;;;25.40;99.90;;;;;;5016607;28;20251;-54
2023/06/22 07:40:47;;;;;;;5.00;3.00;;;25.40;99.90;;;;;;5016613;28;20180;-53
2023/06/22 07:43:12;;;;;;;5.70;3.37;;;25.40;99.90;;;;;;5016440;28;20208;-54
2023/06/22 07:45:40;;;;;;;3.50;3.20;;;25.50;99.90;;;;;;5016249;28;20453;-53
2023/06/22 07:48:05;;;;;;;4.63;3.47;;;25.70;99.90;;;;;;5016395;28;20279;-54
2023/06/22 07:50:31;;;;;;;6.23;3.50;;;25.80;99.90;;;;;;5016056;28;20498;-54
2023/06/22 07:52:56;;;;;;;4.10;3.70;;;25.80;99.90;;;;;;5015098;28;20263;-53
2023/06/22 07:55:22;;;;;;;4.80;3.50;;;25.90;99.90;;;;;;5016255;28;20185;-52
2023/06/22 07:57:49;;;;;;;7.43;3.87;;;25.90;99.90;;;;;;5016264;28;20226;-52
2023/06/22 08:00:15;;;;;;;7.33;4.30;;;25.80;99.90;;;;;;5016450;28;20196;-52
2023/06/22 08:02:42;;;;;;;3.80;3.13;;;25.70;99.90;;;;;;5016097;28;20418;-52
2023/06/22 08:05:11;;;;;;;6.87;3.43;;;25.70;99.90;;;;;;5015995;28;20517;-52
2023/06/22 08:07:37;;;;;;;7.03;4.13;;;25.50;99.90;;;;;;5016286;28;20480;-52
2023/06/22 08:10:04;;;;;;;5.03;3.70;;;25.40;99.90;;;;;;5016045;28;20549;-52
2023/06/22 08:12:29;;;;;;;5.40;4.13;;;25.40;99.90;;;;;;5015588;28;20998;-52
2023/06/22 08:14:56;;;;;;;4.43;4.00;;;25.80;99.90;;;;;;5015901;28;20534;-53
2023/06/22 08:17:26;;;;;;;7.20;3.93;;;26.20;99.90;;;;;;5016133;28;20270;-53
2023/06/22 08:19:51;;;;;;;5.73;3.60;;;26.10;99.90;;;;;;5015838;28;20419;-52
2023/06/22 08:22:18;;;;;;;3.83;3.40;;;26.30;99.90;;;;;;5015414;28;20731;-54
2023/06/22 08:24:43;;;;;;;3.77;3.40;;;26.90;99.90;;;;;;5015787;28;20687;-54
2023/06/22 08:27:11;;;;;;;5.43;4.00;;;27.60;99.90;;;;;;5015860;28;20623;-53
2023/06/22 08:29:37;;;;;;;6.00;3.97;;;27.90;99.90;;;;;;5015754;28;20294;-53
2023/06/22 08:32:03;;;;;;;4.97;3.30;;;27.80;99.90;;;;;;5015379;28;21034;-54
2023/06/22 08:34:29;;;;;;;3.40;3.10;;;27.60;99.90;;;;;;5015262;28;20594;-53
2023/06/22 08:36:54;;;;;;;3.60;3.30;;;27.80;99.90;;;;;;5015278;28;20184;-53
2023/06/22 08:39:20;;;;;;;3.20;2.90;;;28.20;99.90;;;;;;5015558;28;20200;-54
2023/06/22 08:41:48;;;;;;;5.70;3.57;;;28.50;99.90;;;;;;5015069;28;20180;-53
2023/06/22 08:44:17;;;;;;;6.70;3.37;;;28.60;99.90;;;;;;5015560;28;20179;-54
2023/06/22 08:46:42;;;;;;;6.50;3.07;;;28.80;99.90;;;;;;5015477;28;20426;-53
2023/06/22 08:49:09;;;;;;;4.67;3.40;;;28.60;99.90;;;;;;5014770;28;20782;-54
2023/06/22 08:51:35;;;;;;;3.70;3.40;;;28.00;99.90;;;;;;5015428;28;20177;-53
2023/06/22 08:54:01;;;;;;;5.30;3.73;;;27.40;99.90;;;;;;5014718;28;20524;-53
2023/06/22 08:56:26;;;;;;;4.57;3.30;;;26.70;99.90;;;;;;5014782;28;20220;-53
2023/06/22 08:58:52;;;;;;;4.67;3.43;;;26.50;99.90;;;;;;5014915;28;20188;-57
2023/06/22 09:01:17;;;;;;;3.53;3.23;;;26.90;99.90;;;;;;5014935;28;20183;-54
2023/06/22 09:03:53;;;;;;;4.80;2.80;;;27.80;99.90;;;;;;5014912;28;20543;-53
2023/06/22 09:06:19;;;;;;;5.17;3.43;;;28.60;99.90;;;;;;5015126;28;20184;-53
2023/06/22 09:08:46;;;;;;;4.80;3.77;;;29.20;99.90;;;;;;5014310;28;20431;-54
2023/06/22 09:11:11;;;;;;;4.73;3.60;;;29.60;99.90;;;;;;5013739;28;20467;-54
2023/06/22 09:13:37;;;;;;;5.37;3.70;;;29.90;99.90;;;;;;5014753;28;20469;-54
2023/06/22 09:16:03;;;;;;;6.03;3.80;;;30.00;99.90;;;;;;5014763;28;20181;-54
2023/06/22 09:18:28;;;;;;;3.87;3.47;;;30.30;99.90;;;;;;5014664;28;20591;-55
2023/06/22 09:20:54;;;;;;;4.80;3.90;;;30.70;99.90;;;;;;5014669;28;20657;-54
2023/06/22 09:23:19;;;;;;;5.17;3.53;;;30.80;99.90;;;;;;5014114;28;20184;-55
2023/06/22 09:25:47;;;;;;;4.60;3.50;;;31.10;99.90;;;;;;5014116;28;20235;-54
2023/06/22 09:28:13;;;;;;;6.83;4.90;;;31.00;99.90;;;;;;5014228;28;20267;-54
2023/06/22 09:30:39;;;;;;;5.03;3.80;;;31.10;99.90;;;;;;5014489;28;20503;-55
2023/06/22 09:33:04;;;;;;;4.30;3.90;;;31.30;99.90;;;;;;5014156;28;20454;-54
2023/06/22 09:35:30;;;;;;;5.00;3.37;;;31.60;99.90;;;;;;5014230;28;20176;-54
2023/06/22 09:37:56;;;;;;;4.27;3.50;;;31.70;99.90;;;;;;5013981;28;20172;-55
2023/06/22 09:40:21;;;;;;;5.73;3.73;;;31.70;99.90;;;;;;5014192;28;20229;-54
2023/06/22 09:42:47;;;;;;;5.70;4.50;;;31.40;99.90;;;;;;5014174;28;20187;-54
2023/06/22 09:45:12;;;;;;;4.40;3.70;;;31.40;99.90;;;;;;5014043;28;20552;-54
2023/06/22 09:47:38;;;;;;;5.13;3.67;;;31.40;99.90;;;;;;5013724;28;20179;-54
2023/06/22 09:50:04;;;;;;;4.27;3.97;;;31.70;99.90;;;;;;5013811;28;20216;-54
2023/06/22 09:52:30;;;;;;;5.47;3.10;;;31.70;99.90;;;;;;5013855;28;20252;-54
2023/06/22 09:54:55;;;;;;;5.00;4.40;;;31.90;99.90;;;;;;5014014;28;20493;-54
2023/06/22 09:57:21;;;;;;;4.83;4.20;;;31.80;99.90;;;;;;5014456;28;20520;-54
2023/06/22 09:59:47;;;;;;;5.33;4.10;;;31.90;99.90;;;;;;5014485;28;20288;-54
2023/06/22 10:02:13;;;;;;;6.93;3.60;;;31.80;99.90;;;;;;5013963;28;20644;-54
2023/06/22 10:04:40;;;;;;;6.63;4.47;;;31.60;99.90;;;;;;5013844;28;20187;-54
2023/06/22 10:07:05;;;;;;;5.10;3.70;;;31.70;99.90;;;;;;5013912;28;20424;-55
2023/06/22 10:09:31;;;;;;;5.40;3.70;;;31.90;99.90;;;;;;5014048;28;20621;-54
2023/06/22 10:11:57;;;;;;;7.40;3.47;;;32.40;99.90;;;;;;5013799;28;20601;-56
2023/06/22 10:14:24;;;;;;;5.30;4.20;;;32.60;99.90;;;;;;5013813;28;20219;-55
2023/06/22 10:16:50;;;;;;;4.20;3.90;;;32.70;99.90;;;;;;5018738;28;20241;-54
2023/06/22 10:19:16;;;;;;;8.10;4.00;;;32.70;99.90;;;;;;5020103;28;20411;-54
2023/06/22 10:21:41;;;;;;;4.63;4.13;;;32.90;99.90;;;;;;5020681;28;20981;-55
2023/06/22 10:24:08;;;;;;;4.63;3.77;;;32.70;99.90;;;;;;5020064;28;20262;-55
2023/06/22 10:26:34;;;;;;;3.40;3.10;;;32.70;99.90;;;;;;5019994;28;20188;-54
2023/06/22 10:29:00;;;;;;;6.20;3.50;;;33.00;99.90;;;;;;5019949;28;20415;-55
2023/06/22 10:31:27;;;;;;;3.70;3.37;;;33.10;99.90;;;;;;5020156;28;20238;-55
2023/06/22 10:33:53;;;;;;;4.20;3.50;;;33.20;99.90;;;;;;5020017;28;20947;-55
2023/06/22 10:36:19;;;;;;;4.90;4.03;;;33.50;99.90;;;;;;5020112;28;20414;-55
2023/06/22 10:38:45;;;;;;;7.20;4.13;;;33.60;99.90;;;;;;5019881;28;20946;-54
2023/06/22 10:41:11;;;;;;;4.70;4.30;;;33.80;99.90;;;;;;5020087;28;20234;-55
2023/06/22 10:43:36;;;;;;;3.90;3.53;;;34.00;99.90;;;;;;5020455;28;20855;-54
2023/06/22 10:46:02;;;;;;;6.20;3.63;;;34.20;99.90;;;;;;5019917;28;20545;-55
2023/06/22 10:48:27;;;;;;;6.27;4.17;;;34.20;99.90;;;;;;5020358;28;20266;-55
2023/06/22 10:50:54;;;;;;;4.50;3.60;;;34.10;99.90;;;;;;5020137;28;20223;-54
2023/06/22 10:53:20;;;;;;;4.40;3.37;;;34.10;99.90;;;;;;5019805;28;20235;-55
2023/06/22 10:55:45;;;;;;;3.93;3.63;;;34.20;99.90;;;;;;5020195;28;20421;-54
2023/06/22 10:58:11;;;;;;;3.80;3.50;;;34.40;99.90;;;;;;5019953;28;20822;-54
2023/06/22 11:00:37;;;;;;;6.83;4.10;;;34.20;99.90;;;;;;5019698;28;20188;-54
2023/06/22 11:03:03;;;;;;;6.63;4.80;;;34.50;99.90;;;;;;5019897;28;20696;-54
2023/06/22 11:05:29;;;;;;;7.87;4.30;;;34.40;99.90;;;;;;5019924;28;20465;-54
2023/06/22 11:07:54;;;;;;;4.17;3.77;;;34.40;99.90;;;;;;5019991;28;20180;-54
2023/06/22 11:10:20;;;;;;;4.60;4.00;;;34.60;99.90;;;;;;5019730;28;20243;-55
2023/06/22 11:12:46;;;;;;;4.43;3.70;;;34.90;99.90;;;;;;5019834;28;20647;-55
2023/06/22 11:15:11;;;;;;;4.63;3.40;;;35.20;99.90;;;;;;5019606;28;20180;-55
2023/06/22 11:17:37;;;;;;;4.47;3.90;;;35.30;99.90;;;;;;5020081;28;20526;-54
2023/06/22 11:20:09;;;;;;;4.30;4.00;;;34.70;99.90;;;;;;5019616;28;20555;-54
2023/06/22 11:22:35;;;;;;;5.67;4.27;;;33.60;99.90;;;;;;5020029;28;20621;-54
2023/06/22 11:25:01;;;;;;;6.17;4.10;;;32.50;99.90;;;;;;5019576;28;20453;-54
2023/06/22 11:27:26;;;;;;;6.73;4.40;;;31.50;99.90;;;;;;5017414;28;20181;-54
2023/06/22 11:29:52;;;;;;;4.33;4.03;;;30.80;99.90;;;;;;5016461;28;20243;-54
2023/06/22 11:32:19;;;;;;;6.47;5.13;;;30.20;99.90;;;;;;5016744;28;20215;-54
2023/06/22 11:34:44;;;;;;;6.33;4.63;;;29.90;99.90;;;;;;5016934;28;20412;-54
2023/06/22 11:37:10;;;;;;;6.20;5.10;;;30.40;99.90;;;;;;5016685;28;20427;-54
2023/06/22 11:39:35;;;;;;;8.10;5.50;;;31.40;99.90;;;;;;5016389;28;20620;-54
2023/06/22 11:42:01;;;;;;;7.83;6.50;;;32.10;99.90;;;;;;5016155;28;20184;-54
2023/06/22 11:44:26;;;;;;;5.63;5.10;;;32.10;99.90;;;;;;5016233;28;20183;-54
2023/06/22 11:46:52;;;;;;;5.87;5.27;;;31.90;99.90;;;;;;5016790;28;20176;-54
2023/06/22 11:49:18;;;;;;;5.30;4.17;;;31.60;99.90;;;;;;5016148;28;20184;-54
2023/06/22 11:51:43;;;;;;;4.70;4.30;;;31.00;99.90;;;;;;5016142;28;20234;-54
2023/06/22 11:54:09;;;;;;;7.43;5.37;;;30.60;99.90;;;;;;5015627;28;20657;-54
2023/06/22 11:56:34;;;;;;;5.40;4.90;;;30.50;99.90;;;;;;5015871;28;20238;-53
2023/06/22 11:59:00;;;;;;;5.53;5.03;;;30.70;99.90;;;;;;5016070;28;20208;-54
2023/06/22 12:01:25;;;;;;;5.30;4.50;;;31.00;99.90;;;;;;5015887;28;20231;-54
2023/06/22 12:03:51;;;;;;;6.50;4.73;;;31.50;99.90;;;;;;5016040;28;20272;-54
2023/06/22 12:06:17;;;;;;;5.70;4.60;;;31.70;99.90;;;;;;5016229;28;20500;-54
2023/06/22 12:08:42;;;;;;;8.10;5.00;;;31.60;99.90;;;;;;5015537;28;20188;-53
2023/06/22 12:11:08;;;;;;;5.73;5.23;;;31.30;99.90;;;;;;5015445;28;20519;-53
2023/06/22 12:13:34;;;;;;;10.00;5.93;;;30.90;99.90;;;;;;5015700;28;20533;-53
2023/06/22 12:15:59;;;;;;;5.83;5.10;;;30.90;99.90;;;;;;5015669;28;20318;-53
2023/06/22 12:18:25;;;;;;;6.90;5.23;;;30.90;99.90;;;;;;5015366;28;20176;-53
2023/06/22 12:20:50;;;;;;;6.40;4.50;;;31.30;99.90;;;;;;5015750;28;20235;-53
2023/06/22 12:23:16;;;;;;;5.33;4.73;;;31.70;99.90;;;;;;5015269;28;20187;-53
2023/06/22 12:25:41;;;;;;;7.60;4.43;;;31.80;99.90;;;;;;5015927;28;20263;-53
2023/06/22 12:28:07;;;;;;;5.17;4.67;;;31.50;99.90;;;;;;5015656;28;20637;-53
2023/06/22 12:30:33;;;;;;;6.63;5.30;;;31.30;99.90;;;;;;5015360;28;20212;-53
2023/06/22 12:32:59;;;;;;;8.77;5.07;;;31.00;99.90;;;;;;5015541;28;20231;-54
2023/06/22 12:35:24;;;;;;;6.80;4.90;;;30.80;99.90;;;;;;5015256;28;20196;-53
2023/06/22 12:37:50;;;;;;;7.33;5.33;;;30.70;99.90;;;;;;5015460;28;20267;-53
2023/06/22 12:40:15;;;;;;;9.23;5.20;;;30.70;99.90;;;;;;5014753;28;20188;-54